メインページ
METAR-TAF:

METAR-TAF

空港 :

アンマン, ヨルダン

緯度: 31-59N, 経度: 035-59E, 海抜: 767m

現時点の気象観測

当レポートは1時間37分前の18:00(UTC)に作成
西の風 10kt
気温 12°C
湿度 76%
気圧 1011 hPa
視程: 3000m
高度2500ftの雲は散在している
煙霧

METAR: OJAM 251800Z 28010KT 3000 HZ SCT025 12/08 Q1011 NOSIG

時間: 21:37 (19:37 UTC)

予報

当レポートは2時間47分前の16:50(UTC)に作成
予報は25日の 18時(UTC)から 26日の 24時(UTC)まで有効
西/南西の風 10kt
視程: 4000m
高度4000ftの雲はほとんどない
高度8000ftの雲は散在している
煙霧
26日の 00時(UTC)から 26日の 06時(UTC)まで一時的に
視程: 2000m
26日の 02時(UTC)から 26日の 01時(UTC)まで一時的に
西の風 12kt
視程: 3000m
高度4000ftの雲は散在している
高度7000ftの千切れ雲あり
弱いにわか雨
26日の 06時(UTC)から 26日の 08時(UTC)まで徐々に
西の風 15kt
視程: 5000m
高度4000ftの雲は散在している
高度8000ftの雲は散在している
煙霧
26日の 17時(UTC)から 26日の 19時(UTC)まで徐々に
南西の風 10kt
高度4000ftの雲はほとんどない

TAF: OJAM 251650Z 2518/2624 24010KT 4000 HZ FEW040 SCT080 TEMPO 2600/2606 2000 BR TEMPO 2602/26012 28012KT 3000 -SHRA SCT040 BKN070 BECMG 2606/2608 26015KT 5000 HZ SCT040 SCT080 BECMG 2617/2619 23010KT FEW040

4,000以上の空港の気象観測と天気予報(METAR報とTAF報)

利用可能な観測所は地図上に黄色い丸と赤い丸で示す。

丸の上にカーソルを重ねると観測所名を参照できる。

次にクリックすると気象観測と天気予報を参照できる。

マップの切り替え:黒色「×」印の緑ボタンをクリックして拡大、「-」印の緑ボタンをクリックして縮小、緑色の三角印をクリックして隣りの地図に切り替え


METAR-TAF: